sensor_id;sensor_type;location;lat;lon;timestamp;P1;durP1;ratioP1;P2;durP2;ratioP2
53961;SDS011;39868;53.398;6.564;2022-11-23T00:01:24;6.43;;;3.67;;
53961;SDS011;39868;53.398;6.564;2022-11-23T00:03:54;8.00;;;4.45;;
53961;SDS011;39868;53.398;6.564;2022-11-23T00:06:24;7.18;;;3.97;;
53961;SDS011;39868;53.398;6.564;2022-11-23T00:08:52;7.93;;;4.18;;
53961;SDS011;39868;53.398;6.564;2022-11-23T00:11:21;7.05;;;4.20;;
53961;SDS011;39868;53.398;6.564;2022-11-23T00:13:49;8.60;;;4.55;;
53961;SDS011;39868;53.398;6.564;2022-11-23T00:16:21;7.30;;;4.47;;
53961;SDS011;39868;53.398;6.564;2022-11-23T00:18:56;9.45;;;5.03;;
53961;SDS011;39868;53.398;6.564;2022-11-23T00:21:26;7.50;;;4.68;;
53961;SDS011;39868;53.398;6.564;2022-11-23T00:23:55;7.35;;;4.47;;
53961;SDS011;39868;53.398;6.564;2022-11-23T00:26:23;6.93;;;4.22;;
53961;SDS011;39868;53.398;6.564;2022-11-23T00:28:51;7.88;;;4.82;;
53961;SDS011;39868;53.398;6.564;2022-11-23T00:31:19;9.25;;;4.90;;
53961;SDS011;39868;53.398;6.564;2022-11-23T00:33:47;8.20;;;4.90;;
53961;SDS011;39868;53.398;6.564;2022-11-23T00:36:16;10.50;;;5.20;;
53961;SDS011;39868;53.398;6.564;2022-11-23T00:38:45;8.80;;;4.95;;
53961;SDS011;39868;53.398;6.564;2022-11-23T00:41:14;9.07;;;5.03;;
53961;SDS011;39868;53.398;6.564;2022-11-23T00:43:43;6.60;;;4.15;;
53961;SDS011;39868;53.398;6.564;2022-11-23T00:48:44;8.23;;;4.80;;
53961;SDS011;39868;53.398;6.564;2022-11-23T00:51:14;6.93;;;4.28;;
53961;SDS011;39868;53.398;6.564;2022-11-23T00:53:44;8.00;;;4.63;;
53961;SDS011;39868;53.398;6.564;2022-11-23T00:56:12;6.40;;;4.75;;
53961;SDS011;39868;53.398;6.564;2022-11-23T00:58:39;10.57;;;5.28;;
53961;SDS011;39868;53.398;6.564;2022-11-23T01:01:11;6.90;;;4.63;;
53961;SDS011;39868;53.398;6.564;2022-11-23T01:03:44;9.85;;;5.47;;
53961;SDS011;39868;53.398;6.564;2022-11-23T01:06:15;9.60;;;5.45;;
53961;SDS011;39868;53.398;6.564;2022-11-23T01:09:04;9.88;;;4.88;;
53961;SDS011;39868;53.398;6.564;2022-11-23T01:11:38;7.75;;;5.15;;
53961;SDS011;39868;53.398;6.564;2022-11-23T01:14:06;9.77;;;5.32;;
53961;SDS011;39868;53.398;6.564;2022-11-23T01:16:35;7.35;;;4.70;;
53961;SDS011;39868;53.398;6.564;2022-11-23T01:19:06;8.85;;;5.65;;
53961;SDS011;39868;53.398;6.564;2022-11-23T01:21:35;8.57;;;5.25;;
53961;SDS011;39868;53.398;6.564;2022-11-23T01:24:06;8.90;;;5.10;;
53961;SDS011;39868;53.398;6.564;2022-11-23T01:26:37;8.55;;;5.10;;
53961;SDS011;39868;53.398;6.564;2022-11-23T01:29:05;7.03;;;4.78;;
53961;SDS011;39868;53.398;6.564;2022-11-23T01:31:33;7.85;;;4.93;;
53961;SDS011;39868;53.398;6.564;2022-11-23T01:34:01;7.35;;;4.75;;
53961;SDS011;39868;53.398;6.564;2022-11-23T01:36:32;12.50;;;5.30;;
53961;SDS011;39868;53.398;6.564;2022-11-23T01:39:03;8.57;;;4.85;;
53961;SDS011;39868;53.398;6.564;2022-11-23T01:41:33;8.15;;;4.97;;
53961;SDS011;39868;53.398;6.564;2022-11-23T01:46:53;8.68;;;4.70;;
53961;SDS011;39868;53.398;6.564;2022-11-23T01:49:23;8.20;;;5.60;;
53961;SDS011;39868;53.398;6.564;2022-11-23T01:51:53;8.30;;;5.35;;
53961;SDS011;39868;53.398;6.564;2022-11-23T01:54:25;7.38;;;5.05;;
53961;SDS011;39868;53.398;6.564;2022-11-23T01:57:01;11.20;;;5.50;;
53961;SDS011;39868;53.398;6.564;2022-11-23T01:59:32;9.23;;;5.20;;
53961;SDS011;39868;53.398;6.564;2022-11-23T02:02:01;7.88;;;5.50;;
53961;SDS011;39868;53.398;6.564;2022-11-23T02:04:34;8.93;;;5.38;;
53961;SDS011;39868;53.398;6.564;2022-11-23T02:07:04;9.20;;;5.38;;
53961;SDS011;39868;53.398;6.564;2022-11-23T02:09:33;6.97;;;4.57;;
53961;SDS011;39868;53.398;6.564;2022-11-23T02:12:01;8.05;;;5.10;;
53961;SDS011;39868;53.398;6.564;2022-11-23T02:14:29;10.93;;;5.68;;
53961;SDS011;39868;53.398;6.564;2022-11-23T02:16:57;9.00;;;5.10;;
53961;SDS011;39868;53.398;6.564;2022-11-23T02:21:52;6.80;;;5.05;;
53961;SDS011;39868;53.398;6.564;2022-11-23T02:24:22;7.53;;;5.15;;
53961;SDS011;39868;53.398;6.564;2022-11-23T02:27:02;8.70;;;5.00;;
53961;SDS011;39868;53.398;6.564;2022-11-23T02:29:32;8.77;;;5.00;;
53961;SDS011;39868;53.398;6.564;2022-11-23T02:32:01;6.60;;;4.55;;
53961;SDS011;39868;53.398;6.564;2022-11-23T02:34:28;10.30;;;5.03;;
53961;SDS011;39868;53.398;6.564;2022-11-23T02:36:58;9.88;;;5.28;;
53961;SDS011;39868;53.398;6.564;2022-11-23T02:42:33;6.47;;;4.28;;
53961;SDS011;39868;53.398;6.564;2022-11-23T02:48:14;8.52;;;4.85;;
53961;SDS011;39868;53.398;6.564;2022-11-23T02:50:41;7.50;;;4.70;;
53961;SDS011;39868;53.398;6.564;2022-11-23T02:53:09;7.65;;;5.15;;
53961;SDS011;39868;53.398;6.564;2022-11-23T02:55:37;6.00;;;3.90;;
53961;SDS011;39868;53.398;6.564;2022-11-23T02:58:05;7.72;;;4.38;;
53961;SDS011;39868;53.398;6.564;2022-11-23T03:00:33;7.05;;;4.38;;
53961;SDS011;39868;53.398;6.564;2022-11-23T03:03:01;8.07;;;4.15;;
53961;SDS011;39868;53.398;6.564;2022-11-23T03:05:29;6.25;;;4.10;;
53961;SDS011;39868;53.398;6.564;2022-11-23T03:08:03;7.00;;;4.22;;
53961;SDS011;39868;53.398;6.564;2022-11-23T03:10:31;6.78;;;4.00;;
53961;SDS011;39868;53.398;6.564;2022-11-23T03:12:59;5.72;;;4.10;;
53961;SDS011;39868;53.398;6.564;2022-11-23T03:15:31;8.05;;;4.53;;
53961;SDS011;39868;53.398;6.564;2022-11-23T03:17:58;8.60;;;4.30;;
53961;SDS011;39868;53.398;6.564;2022-11-23T03:20:27;6.07;;;3.95;;
53961;SDS011;39868;53.398;6.564;2022-11-23T03:22:55;9.55;;;4.55;;
53961;SDS011;39868;53.398;6.564;2022-11-23T03:25:23;7.05;;;3.88;;
53961;SDS011;39868;53.398;6.564;2022-11-23T03:27:53;6.78;;;4.53;;
53961;SDS011;39868;53.398;6.564;2022-11-23T03:30:21;10.32;;;4.50;;
53961;SDS011;39868;53.398;6.564;2022-11-23T03:32:48;6.80;;;4.10;;
53961;SDS011;39868;53.398;6.564;2022-11-23T03:35:17;7.38;;;4.03;;
53961;SDS011;39868;53.398;6.564;2022-11-23T03:38:01;8.07;;;4.30;;
53961;SDS011;39868;53.398;6.564;2022-11-23T03:40:29;6.07;;;3.92;;
53961;SDS011;39868;53.398;6.564;2022-11-23T03:43:23;7.35;;;4.10;;
53961;SDS011;39868;53.398;6.564;2022-11-23T03:45:50;5.80;;;3.88;;
53961;SDS011;39868;53.398;6.564;2022-11-23T03:48:17;7.40;;;4.43;;
53961;SDS011;39868;53.398;6.564;2022-11-23T03:50:46;7.53;;;4.93;;
53961;SDS011;39868;53.398;6.564;2022-11-23T03:53:14;7.18;;;4.03;;
53961;SDS011;39868;53.398;6.564;2022-11-23T03:55:44;6.47;;;3.60;;
53961;SDS011;39868;53.398;6.564;2022-11-23T03:58:13;6.75;;;4.13;;
53961;SDS011;39868;53.398;6.564;2022-11-23T04:00:40;7.00;;;3.58;;
53961;SDS011;39868;53.398;6.564;2022-11-23T04:03:11;7.13;;;3.85;;
53961;SDS011;39868;53.398;6.564;2022-11-23T04:05:57;6.03;;;4.10;;
53961;SDS011;39868;53.398;6.564;2022-11-23T04:08:46;7.40;;;4.13;;
53961;SDS011;39868;53.398;6.564;2022-11-23T04:11:20;6.70;;;4.18;;
53961;SDS011;39868;53.398;6.564;2022-11-23T04:13:48;6.55;;;3.95;;
53961;SDS011;39868;53.398;6.564;2022-11-23T04:16:17;7.57;;;3.75;;
53961;SDS011;39868;53.398;6.564;2022-11-23T04:18:44;5.35;;;3.45;;
53961;SDS011;39868;53.398;6.564;2022-11-23T04:21:12;7.90;;;4.10;;
53961;SDS011;39868;53.398;6.564;2022-11-23T04:23:39;8.85;;;4.00;;
53961;SDS011;39868;53.398;6.564;2022-11-23T04:26:09;6.05;;;3.90;;
53961;SDS011;39868;53.398;6.564;2022-11-23T04:28:40;6.90;;;3.67;;
53961;SDS011;39868;53.398;6.564;2022-11-23T04:31:07;6.40;;;3.53;;
53961;SDS011;39868;53.398;6.564;2022-11-23T04:33:49;11.33;;;3.80;;
53961;SDS011;39868;53.398;6.564;2022-11-23T04:36:18;6.60;;;3.97;;
53961;SDS011;39868;53.398;6.564;2022-11-23T04:38:46;7.15;;;3.83;;
53961;SDS011;39868;53.398;6.564;2022-11-23T04:41:16;5.90;;;3.70;;
53961;SDS011;39868;53.398;6.564;2022-11-23T04:43:46;7.80;;;4.65;;
53961;SDS011;39868;53.398;6.564;2022-11-23T04:46:14;7.20;;;4.15;;
53961;SDS011;39868;53.398;6.564;2022-11-23T04:48:43;9.15;;;3.95;;
53961;SDS011;39868;53.398;6.564;2022-11-23T04:51:13;7.18;;;4.38;;
53961;SDS011;39868;53.398;6.564;2022-11-23T04:53:44;8.27;;;4.63;;
53961;SDS011;39868;53.398;6.564;2022-11-23T04:56:12;8.00;;;3.88;;
53961;SDS011;39868;53.398;6.564;2022-11-23T04:58:41;8.75;;;4.55;;
53961;SDS011;39868;53.398;6.564;2022-11-23T05:01:09;6.32;;;4.03;;
53961;SDS011;39868;53.398;6.564;2022-11-23T05:03:54;7.47;;;4.55;;
53961;SDS011;39868;53.398;6.564;2022-11-23T05:06:24;8.77;;;4.95;;
53961;SDS011;39868;53.398;6.564;2022-11-23T05:08:53;8.73;;;4.88;;
53961;SDS011;39868;53.398;6.564;2022-11-23T05:11:46;10.02;;;5.30;;
53961;SDS011;39868;53.398;6.564;2022-11-23T05:14:14;8.52;;;5.15;;
53961;SDS011;39868;53.398;6.564;2022-11-23T05:16:41;10.43;;;5.70;;
53961;SDS011;39868;53.398;6.564;2022-11-23T05:19:08;12.65;;;5.55;;
53961;SDS011;39868;53.398;6.564;2022-11-23T05:21:37;10.65;;;5.45;;
53961;SDS011;39868;53.398;6.564;2022-11-23T05:24:05;11.05;;;6.15;;
53961;SDS011;39868;53.398;6.564;2022-11-23T05:26:33;9.27;;;5.45;;
53961;SDS011;39868;53.398;6.564;2022-11-23T05:29:02;10.57;;;5.43;;
53961;SDS011;39868;53.398;6.564;2022-11-23T05:31:30;10.98;;;6.35;;
53961;SDS011;39868;53.398;6.564;2022-11-23T05:33:57;13.77;;;6.10;;
53961;SDS011;39868;53.398;6.564;2022-11-23T05:36:35;10.48;;;6.10;;
53961;SDS011;39868;53.398;6.564;2022-11-23T05:39:07;11.50;;;6.47;;
53961;SDS011;39868;53.398;6.564;2022-11-23T05:41:36;10.45;;;5.22;;
53961;SDS011;39868;53.398;6.564;2022-11-23T05:44:14;10.85;;;6.05;;
53961;SDS011;39868;53.398;6.564;2022-11-23T05:46:42;11.15;;;6.10;;
53961;SDS011;39868;53.398;6.564;2022-11-23T05:49:09;14.77;;;6.55;;
53961;SDS011;39868;53.398;6.564;2022-11-23T05:51:37;13.48;;;6.32;;
53961;SDS011;39868;53.398;6.564;2022-11-23T05:54:06;12.73;;;6.22;;
53961;SDS011;39868;53.398;6.564;2022-11-23T05:56:49;14.40;;;6.88;;
53961;SDS011;39868;53.398;6.564;2022-11-23T05:59:22;12.77;;;6.65;;
53961;SDS011;39868;53.398;6.564;2022-11-23T06:01:55;14.00;;;7.35;;
53961;SDS011;39868;53.398;6.564;2022-11-23T06:04:28;14.90;;;7.40;;
53961;SDS011;39868;53.398;6.564;2022-11-23T06:06:57;15.48;;;7.63;;
53961;SDS011;39868;53.398;6.564;2022-11-23T06:09:35;14.45;;;7.28;;
53961;SDS011;39868;53.398;6.564;2022-11-23T06:12:06;17.80;;;8.40;;
53961;SDS011;39868;53.398;6.564;2022-11-23T06:14:34;13.48;;;7.85;;
53961;SDS011;39868;53.398;6.564;2022-11-23T06:17:02;18.13;;;8.98;;
53961;SDS011;39868;53.398;6.564;2022-11-23T06:19:34;20.65;;;7.20;;
53961;SDS011;39868;53.398;6.564;2022-11-23T06:22:03;12.52;;;7.22;;
53961;SDS011;39868;53.398;6.564;2022-11-23T06:24:36;18.85;;;8.60;;
53961;SDS011;39868;53.398;6.564;2022-11-23T06:27:21;13.48;;;7.20;;
53961;SDS011;39868;53.398;6.564;2022-11-23T06:29:50;16.63;;;7.75;;
53961;SDS011;39868;53.398;6.564;2022-11-23T06:32:19;13.73;;;6.93;;
53961;SDS011;39868;53.398;6.564;2022-11-23T06:34:46;16.25;;;8.18;;
53961;SDS011;39868;53.398;6.564;2022-11-23T06:37:14;14.77;;;8.43;;
53961;SDS011;39868;53.398;6.564;2022-11-23T06:39:45;16.10;;;7.82;;
53961;SDS011;39868;53.398;6.564;2022-11-23T06:42:14;17.90;;;8.60;;
53961;SDS011;39868;53.398;6.564;2022-11-23T06:45:01;20.40;;;8.57;;
53961;SDS011;39868;53.398;6.564;2022-11-23T06:47:29;14.77;;;7.50;;
53961;SDS011;39868;53.398;6.564;2022-11-23T06:49:57;14.40;;;7.57;;
53961;SDS011;39868;53.398;6.564;2022-11-23T06:52:27;14.45;;;7.53;;
53961;SDS011;39868;53.398;6.564;2022-11-23T06:54:55;16.08;;;8.25;;
53961;SDS011;39868;53.398;6.564;2022-11-23T06:57:23;15.35;;;7.95;;
53961;SDS011;39868;53.398;6.564;2022-11-23T06:59:52;20.70;;;7.20;;
53961;SDS011;39868;53.398;6.564;2022-11-23T07:02:26;18.15;;;8.07;;
53961;SDS011;39868;53.398;6.564;2022-11-23T07:04:56;17.67;;;7.45;;
53961;SDS011;39868;53.398;6.564;2022-11-23T07:07:25;12.80;;;6.55;;
53961;SDS011;39868;53.398;6.564;2022-11-23T07:10:06;11.93;;;7.13;;
53961;SDS011;39868;53.398;6.564;2022-11-23T07:12:42;16.08;;;7.85;;
53961;SDS011;39868;53.398;6.564;2022-11-23T07:15:11;16.15;;;7.57;;
53961;SDS011;39868;53.398;6.564;2022-11-23T07:17:40;13.75;;;6.85;;
53961;SDS011;39868;53.398;6.564;2022-11-23T07:20:09;13.10;;;7.18;;
53961;SDS011;39868;53.398;6.564;2022-11-23T07:22:38;14.13;;;6.55;;
53961;SDS011;39868;53.398;6.564;2022-11-23T07:25:06;13.25;;;6.78;;
53961;SDS011;39868;53.398;6.564;2022-11-23T07:27:34;11.15;;;5.95;;
53961;SDS011;39868;53.398;6.564;2022-11-23T07:30:04;10.93;;;6.30;;
53961;SDS011;39868;53.398;6.564;2022-11-23T07:32:32;14.38;;;7.18;;
53961;SDS011;39868;53.398;6.564;2022-11-23T07:35:00;12.90;;;5.97;;
53961;SDS011;39868;53.398;6.564;2022-11-23T07:37:29;9.60;;;6.15;;
53961;SDS011;39868;53.398;6.564;2022-11-23T07:39:56;11.02;;;5.45;;
53961;SDS011;39868;53.398;6.564;2022-11-23T07:42:28;14.18;;;6.10;;
53961;SDS011;39868;53.398;6.564;2022-11-23T07:45:05;12.90;;;5.78;;
53961;SDS011;39868;53.398;6.564;2022-11-23T07:47:35;10.68;;;5.38;;
53961;SDS011;39868;53.398;6.564;2022-11-23T07:50:04;10.15;;;5.22;;
53961;SDS011;39868;53.398;6.564;2022-11-23T07:52:33;8.85;;;5.05;;
53961;SDS011;39868;53.398;6.564;2022-11-23T07:55:01;11.32;;;4.85;;
53961;SDS011;39868;53.398;6.564;2022-11-23T07:57:29;11.93;;;4.85;;
53961;SDS011;39868;53.398;6.564;2022-11-23T07:59:56;9.00;;;5.10;;
53961;SDS011;39868;53.398;6.564;2022-11-23T08:02:24;9.85;;;4.95;;
53961;SDS011;39868;53.398;6.564;2022-11-23T08:04:51;10.18;;;5.55;;
53961;SDS011;39868;53.398;6.564;2022-11-23T08:07:19;9.20;;;4.75;;
53961;SDS011;39868;53.398;6.564;2022-11-23T08:09:46;8.38;;;4.35;;
53961;SDS011;39868;53.398;6.564;2022-11-23T08:12:13;6.70;;;4.30;;
53961;SDS011;39868;53.398;6.564;2022-11-23T08:14:41;7.88;;;4.00;;
53961;SDS011;39868;53.398;6.564;2022-11-23T08:17:08;7.30;;;3.60;;
53961;SDS011;39868;53.398;6.564;2022-11-23T08:19:36;7.30;;;4.60;;
53961;SDS011;39868;53.398;6.564;2022-11-23T08:22:03;7.70;;;4.40;;
53961;SDS011;39868;53.398;6.564;2022-11-23T08:24:30;7.60;;;3.92;;
53961;SDS011;39868;53.398;6.564;2022-11-23T08:26:58;9.88;;;4.35;;
53961;SDS011;39868;53.398;6.564;2022-11-23T08:29:26;9.20;;;4.28;;
53961;SDS011;39868;53.398;6.564;2022-11-23T08:31:55;8.90;;;3.72;;
53961;SDS011;39868;53.398;6.564;2022-11-23T08:34:23;8.88;;;4.65;;
53961;SDS011;39868;53.398;6.564;2022-11-23T08:36:51;7.35;;;4.00;;
53961;SDS011;39868;53.398;6.564;2022-11-23T08:39:19;9.88;;;4.00;;
53961;SDS011;39868;53.398;6.564;2022-11-23T08:41:46;9.98;;;3.80;;
53961;SDS011;39868;53.398;6.564;2022-11-23T08:44:13;7.18;;;4.35;;
53961;SDS011;39868;53.398;6.564;2022-11-23T08:46:41;5.80;;;3.90;;
53961;SDS011;39868;53.398;6.564;2022-11-23T08:49:08;5.78;;;3.92;;
53961;SDS011;39868;53.398;6.564;2022-11-23T08:51:35;5.82;;;3.90;;
53961;SDS011;39868;53.398;6.564;2022-11-23T08:54:03;7.20;;;3.78;;
53961;SDS011;39868;53.398;6.564;2022-11-23T08:56:30;7.60;;;4.28;;
53961;SDS011;39868;53.398;6.564;2022-11-23T08:58:58;9.23;;;4.10;;
53961;SDS011;39868;53.398;6.564;2022-11-23T09:01:25;5.60;;;3.85;;
53961;SDS011;39868;53.398;6.564;2022-11-23T09:03:52;4.57;;;3.88;;
53961;SDS011;39868;53.398;6.564;2022-11-23T09:06:20;9.05;;;4.22;;
53961;SDS011;39868;53.398;6.564;2022-11-23T09:08:54;6.05;;;4.03;;
53961;SDS011;39868;53.398;6.564;2022-11-23T09:11:22;5.25;;;3.58;;
53961;SDS011;39868;53.398;6.564;2022-11-23T09:13:51;9.45;;;3.78;;
53961;SDS011;39868;53.398;6.564;2022-11-23T09:16:18;4.72;;;3.80;;
53961;SDS011;39868;53.398;6.564;2022-11-23T09:18:46;7.05;;;3.75;;
53961;SDS011;39868;53.398;6.564;2022-11-23T09:21:15;8.65;;;3.67;;
53961;SDS011;39868;53.398;6.564;2022-11-23T09:23:42;6.68;;;3.95;;
53961;SDS011;39868;53.398;6.564;2022-11-23T09:26:09;6.10;;;4.22;;
53961;SDS011;39868;53.398;6.564;2022-11-23T09:28:37;6.63;;;4.40;;
53961;SDS011;39868;53.398;6.564;2022-11-23T09:31:10;4.63;;;3.60;;
53961;SDS011;39868;53.398;6.564;2022-11-23T09:33:37;8.32;;;4.18;;
53961;SDS011;39868;53.398;6.564;2022-11-23T09:36:05;4.70;;;3.58;;
53961;SDS011;39868;53.398;6.564;2022-11-23T09:38:32;4.95;;;3.65;;
53961;SDS011;39868;53.398;6.564;2022-11-23T09:41:28;9.85;;;4.30;;
53961;SDS011;39868;53.398;6.564;2022-11-23T09:47:24;6.10;;;3.58;;
53961;SDS011;39868;53.398;6.564;2022-11-23T09:50:42;5.70;;;3.50;;
53961;SDS011;39868;53.398;6.564;2022-11-23T09:53:36;6.13;;;4.05;;
53961;SDS011;39868;53.398;6.564;2022-11-23T09:56:22;8.13;;;4.18;;
53961;SDS011;39868;53.398;6.564;2022-11-23T09:58:56;4.93;;;3.63;;
53961;SDS011;39868;53.398;6.564;2022-11-23T10:01:28;6.97;;;4.03;;
53961;SDS011;39868;53.398;6.564;2022-11-23T10:03:58;8.48;;;4.10;;
53961;SDS011;39868;53.398;6.564;2022-11-23T10:06:27;6.95;;;3.67;;
53961;SDS011;39868;53.398;6.564;2022-11-23T10:28:31;6.00;;;3.50;;
53961;SDS011;39868;53.398;6.564;2022-11-23T10:31:01;5.35;;;3.55;;
53961;SDS011;39868;53.398;6.564;2022-11-23T10:36:15;8.77;;;3.10;;
53961;SDS011;39868;53.398;6.564;2022-11-23T10:38:42;5.40;;;3.13;;
53961;SDS011;39868;53.398;6.564;2022-11-23T10:41:13;5.10;;;3.00;;
53961;SDS011;39868;53.398;6.564;2022-11-23T10:44:02;5.80;;;3.05;;
53961;SDS011;39868;53.398;6.564;2022-11-23T10:46:40;5.50;;;3.28;;
53961;SDS011;39868;53.398;6.564;2022-11-23T10:49:27;6.10;;;3.83;;
53961;SDS011;39868;53.398;6.564;2022-11-23T10:52:00;6.85;;;3.88;;
53961;SDS011;39868;53.398;6.564;2022-11-23T10:54:30;7.72;;;3.53;;
53961;SDS011;39868;53.398;6.564;2022-11-23T10:56:59;5.38;;;3.55;;
53961;SDS011;39868;53.398;6.564;2022-11-23T10:59:36;8.10;;;3.50;;
53961;SDS011;39868;53.398;6.564;2022-11-23T11:02:17;5.03;;;3.33;;
53961;SDS011;39868;53.398;6.564;2022-11-23T11:04:47;6.10;;;3.58;;
53961;SDS011;39868;53.398;6.564;2022-11-23T11:07:28;7.70;;;3.67;;
53961;SDS011;39868;53.398;6.564;2022-11-23T11:12:26;7.43;;;3.50;;
53961;SDS011;39868;53.398;6.564;2022-11-23T11:17:37;6.45;;;3.58;;
53961;SDS011;39868;53.398;6.564;2022-11-23T11:22:55;4.15;;;3.00;;
53961;SDS011;39868;53.398;6.564;2022-11-23T11:25:29;6.82;;;3.50;;
53961;SDS011;39868;53.398;6.564;2022-11-23T11:28:17;4.53;;;3.05;;
53961;SDS011;39868;53.398;6.564;2022-11-23T11:31:34;4.93;;;3.40;;
53961;SDS011;39868;53.398;6.564;2022-11-23T11:33:54;4.70;;;3.10;;
53961;SDS011;39868;53.398;6.564;2022-11-23T11:36:23;5.95;;;3.70;;
53961;SDS011;39868;53.398;6.564;2022-11-23T11:38:55;5.20;;;2.90;;
53961;SDS011;39868;53.398;6.564;2022-11-23T11:41:44;4.28;;;3.03;;
53961;SDS011;39868;53.398;6.564;2022-11-23T11:44:21;3.20;;;2.90;;
53961;SDS011;39868;53.398;6.564;2022-11-23T11:46:53;7.85;;;3.33;;
53961;SDS011;39868;53.398;6.564;2022-11-23T11:49:30;4.82;;;3.22;;
53961;SDS011;39868;53.398;6.564;2022-11-23T11:54:36;6.63;;;3.30;;
53961;SDS011;39868;53.398;6.564;2022-11-23T11:57:20;4.25;;;3.00;;
53961;SDS011;39868;53.398;6.564;2022-11-23T11:59:57;4.20;;;2.72;;
53961;SDS011;39868;53.398;6.564;2022-11-23T12:02:34;6.25;;;3.00;;
53961;SDS011;39868;53.398;6.564;2022-11-23T12:05:24;6.43;;;2.83;;
53961;SDS011;39868;53.398;6.564;2022-11-23T12:10:57;9.75;;;2.83;;
53961;SDS011;39868;53.398;6.564;2022-11-23T12:13:26;5.60;;;2.90;;
53961;SDS011;39868;53.398;6.564;2022-11-23T12:54:35;5.43;;;2.28;;
53961;SDS011;39868;53.398;6.564;2022-11-23T12:57:14;5.88;;;2.33;;
53961;SDS011;39868;53.398;6.564;2022-11-23T13:17:21;7.20;;;2.55;;
53961;SDS011;39868;53.398;6.564;2022-11-23T13:21:21;2.03;;;1.92;;
53961;SDS011;39868;53.398;6.564;2022-11-23T13:23:25;3.38;;;1.80;;
53961;SDS011;39868;53.398;6.564;2022-11-23T13:28:43;2.15;;;1.95;;
53961;SDS011;39868;53.398;6.564;2022-11-23T13:31:22;6.45;;;2.60;;
53961;SDS011;39868;53.398;6.564;2022-11-23T13:33:51;4.82;;;2.13;;
53961;SDS011;39868;53.398;6.564;2022-11-23T13:42:11;8.50;;;2.13;;
53961;SDS011;39868;53.398;6.564;2022-11-23T13:44:39;4.22;;;1.73;;
53961;SDS011;39868;53.398;6.564;2022-11-23T13:49:43;3.90;;;1.70;;
53961;SDS011;39868;53.398;6.564;2022-11-23T13:52:23;3.47;;;1.83;;
53961;SDS011;39868;53.398;6.564;2022-11-23T13:57:36;5.28;;;1.80;;
53961;SDS011;39868;53.398;6.564;2022-11-23T14:06:24;3.42;;;1.40;;
53961;SDS011;39868;53.398;6.564;2022-11-23T14:17:40;3.50;;;1.60;;
53961;SDS011;39868;53.398;6.564;2022-11-23T14:25:38;5.20;;;1.83;;
53961;SDS011;39868;53.398;6.564;2022-11-23T14:34:03;5.50;;;1.52;;
53961;SDS011;39868;53.398;6.564;2022-11-23T14:36:38;6.65;;;1.63;;
53961;SDS011;39868;53.398;6.564;2022-11-23T14:42:25;3.60;;;1.48;;
53961;SDS011;39868;53.398;6.564;2022-11-23T14:44:55;4.25;;;1.75;;
53961;SDS011;39868;53.398;6.564;2022-11-23T14:47:28;2.70;;;1.27;;
53961;SDS011;39868;53.398;6.564;2022-11-23T14:49:57;4.07;;;1.60;;
53961;SDS011;39868;53.398;6.564;2022-11-23T14:52:32;3.28;;;1.60;;
53961;SDS011;39868;53.398;6.564;2022-11-23T14:55:03;5.43;;;1.65;;
53961;SDS011;39868;53.398;6.564;2022-11-23T14:57:37;7.63;;;2.03;;
53961;SDS011;39868;53.398;6.564;2022-11-23T15:00:22;2.92;;;1.73;;
53961;SDS011;39868;53.398;6.564;2022-11-23T15:02:53;3.67;;;1.65;;
53961;SDS011;39868;53.398;6.564;2022-11-23T15:05:29;4.55;;;1.30;;
53961;SDS011;39868;53.398;6.564;2022-11-23T15:10:51;2.22;;;1.60;;
53961;SDS011;39868;53.398;6.564;2022-11-23T15:13:24;6.95;;;2.00;;
53961;SDS011;39868;53.398;6.564;2022-11-23T15:15:54;3.28;;;1.58;;
53961;SDS011;39868;53.398;6.564;2022-11-23T15:18:32;3.83;;;1.90;;
53961;SDS011;39868;53.398;6.564;2022-11-23T15:21:25;4.45;;;1.90;;
53961;SDS011;39868;53.398;6.564;2022-11-23T15:23:54;5.57;;;1.83;;
53961;SDS011;39868;53.398;6.564;2022-11-23T15:26:25;9.18;;;2.45;;
53961;SDS011;39868;53.398;6.564;2022-11-23T15:29:28;2.58;;;1.92;;
53961;SDS011;39868;53.398;6.564;2022-11-23T15:31:56;3.30;;;1.90;;
53961;SDS011;39868;53.398;6.564;2022-11-23T15:34:43;3.72;;;2.00;;
53961;SDS011;39868;53.398;6.564;2022-11-23T15:37:12;3.78;;;1.92;;
53961;SDS011;39868;53.398;6.564;2022-11-23T15:39:39;4.20;;;2.00;;
53961;SDS011;39868;53.398;6.564;2022-11-23T15:42:09;4.00;;;2.40;;
53961;SDS011;39868;53.398;6.564;2022-11-23T15:44:43;6.18;;;2.17;;
53961;SDS011;39868;53.398;6.564;2022-11-23T15:47:22;1.90;;;1.80;;
53961;SDS011;39868;53.398;6.564;2022-11-23T15:50:00;4.28;;;2.00;;
53961;SDS011;39868;53.398;6.564;2022-11-23T15:52:31;4.15;;;2.00;;
53961;SDS011;39868;53.398;6.564;2022-11-23T15:55:02;3.90;;;2.10;;
53961;SDS011;39868;53.398;6.564;2022-11-23T15:57:36;7.93;;;2.15;;
53961;SDS011;39868;53.398;6.564;2022-11-23T16:00:05;3.83;;;1.80;;
53961;SDS011;39868;53.398;6.564;2022-11-23T16:02:38;3.15;;;1.85;;
53961;SDS011;39868;53.398;6.564;2022-11-23T16:07:58;3.38;;;1.80;;
53961;SDS011;39868;53.398;6.564;2022-11-23T16:10:28;2.92;;;2.08;;
53961;SDS011;39868;53.398;6.564;2022-11-23T16:12:59;5.10;;;2.00;;
53961;SDS011;39868;53.398;6.564;2022-11-23T16:20:44;4.93;;;1.95;;
53961;SDS011;39868;53.398;6.564;2022-11-23T16:23:18;4.10;;;2.25;;
53961;SDS011;39868;53.398;6.564;2022-11-23T16:25:58;7.38;;;2.10;;
53961;SDS011;39868;53.398;6.564;2022-11-23T16:30:59;3.97;;;1.80;;
53961;SDS011;39868;53.398;6.564;2022-11-23T16:33:27;4.50;;;1.92;;
53961;SDS011;39868;53.398;6.564;2022-11-23T16:35:56;3.92;;;2.20;;
53961;SDS011;39868;53.398;6.564;2022-11-23T16:38:24;5.40;;;1.70;;
53961;SDS011;39868;53.398;6.564;2022-11-23T16:40:51;6.40;;;2.47;;
53961;SDS011;39868;53.398;6.564;2022-11-23T16:43:19;4.43;;;2.05;;
53961;SDS011;39868;53.398;6.564;2022-11-23T16:45:48;2.95;;;1.75;;
53961;SDS011;39868;53.398;6.564;2022-11-23T16:50:51;3.15;;;1.80;;
53961;SDS011;39868;53.398;6.564;2022-11-23T16:53:20;7.00;;;1.95;;
53961;SDS011;39868;53.398;6.564;2022-11-23T16:55:54;2.83;;;1.80;;
53961;SDS011;39868;53.398;6.564;2022-11-23T16:58:23;3.97;;;1.83;;
53961;SDS011;39868;53.398;6.564;2022-11-23T17:00:51;2.17;;;1.92;;
53961;SDS011;39868;53.398;6.564;2022-11-23T17:03:19;3.08;;;2.25;;
53961;SDS011;39868;53.398;6.564;2022-11-23T17:05:46;3.40;;;2.00;;
53961;SDS011;39868;53.398;6.564;2022-11-23T17:08:14;5.25;;;2.17;;
53961;SDS011;39868;53.398;6.564;2022-11-23T17:10:48;1.85;;;1.75;;
53961;SDS011;39868;53.398;6.564;2022-11-23T17:13:26;3.47;;;1.85;;
53961;SDS011;39868;53.398;6.564;2022-11-23T17:15:55;3.65;;;2.28;;
53961;SDS011;39868;53.398;6.564;2022-11-23T17:18:22;2.97;;;1.80;;
53961;SDS011;39868;53.398;6.564;2022-11-23T17:20:50;2.63;;;1.90;;
53961;SDS011;39868;53.398;6.564;2022-11-23T17:23:17;3.28;;;2.17;;
53961;SDS011;39868;53.398;6.564;2022-11-23T17:40:04;1.98;;;1.83;;
53961;SDS011;39868;53.398;6.564;2022-11-23T17:42:38;6.43;;;2.38;;
53961;SDS011;39868;53.398;6.564;2022-11-23T17:45:06;2.75;;;1.90;;
53961;SDS011;39868;53.398;6.564;2022-11-23T17:47:33;3.50;;;1.90;;
53961;SDS011;39868;53.398;6.564;2022-11-23T17:50:01;3.88;;;1.98;;
53961;SDS011;39868;53.398;6.564;2022-11-23T17:52:28;3.08;;;1.77;;
53961;SDS011;39868;53.398;6.564;2022-11-23T17:54:56;4.07;;;2.35;;
53961;SDS011;39868;53.398;6.564;2022-11-23T17:57:24;3.28;;;2.35;;
53961;SDS011;39868;53.398;6.564;2022-11-23T17:59:53;4.60;;;2.35;;
53961;SDS011;39868;53.398;6.564;2022-11-23T18:02:37;3.38;;;2.20;;
53961;SDS011;39868;53.398;6.564;2022-11-23T18:05:04;5.65;;;2.60;;
53961;SDS011;39868;53.398;6.564;2022-11-23T18:07:32;3.10;;;2.13;;
53961;SDS011;39868;53.398;6.564;2022-11-23T18:09:59;3.55;;;2.58;;
53961;SDS011;39868;53.398;6.564;2022-11-23T18:12:27;2.83;;;2.42;;
53961;SDS011;39868;53.398;6.564;2022-11-23T18:14:54;2.85;;;2.42;;